createdAt,value
2017-10-19T00:00:08.092Z,99.90
2017-10-19T00:02:34.418Z,99.90
2017-10-19T00:05:00.730Z,99.90
2017-10-19T00:07:27.038Z,99.90
2017-10-19T00:09:54.076Z,99.90
2017-10-19T00:12:21.104Z,99.90
2017-10-19T00:14:47.413Z,99.90
2017-10-19T00:17:13.702Z,99.90
2017-10-19T00:19:40.031Z,99.90
2017-10-19T00:22:06.475Z,99.90
2017-10-19T00:24:32.768Z,99.90
2017-10-19T00:26:59.843Z,99.90
2017-10-19T00:29:26.132Z,99.90
2017-10-19T00:31:53.905Z,99.90
2017-10-19T00:34:20.196Z,99.90
2017-10-19T00:36:46.477Z,99.90
2017-10-19T00:39:13.519Z,99.90
2017-10-19T00:41:40.547Z,99.90
2017-10-19T00:44:06.829Z,99.90
2017-10-19T00:46:33.135Z,99.90
2017-10-19T00:49:00.256Z,99.90
2017-10-19T00:51:26.553Z,99.90
2017-10-19T00:53:52.836Z,99.90
2017-10-19T00:56:19.932Z,99.90
2017-10-19T00:58:46.192Z,99.90
2017-10-19T01:01:12.517Z,99.90
2017-10-19T01:03:38.820Z,99.90
2017-10-19T01:06:05.107Z,99.90
2017-10-19T01:08:32.140Z,99.90
2017-10-19T01:10:58.432Z,99.90
2017-10-19T01:13:24.729Z,99.90
2017-10-19T01:15:50.998Z,99.90
2017-10-19T01:18:17.331Z,99.90
2017-10-19T01:20:43.637Z,99.90
2017-10-19T01:23:09.944Z,99.90
2017-10-19T01:25:36.235Z,99.90
2017-10-19T01:28:02.540Z,99.90
2017-10-19T01:30:28.855Z,99.90
2017-10-19T01:32:55.111Z,99.90
2017-10-19T01:35:21.424Z,99.90
2017-10-19T01:37:48.034Z,99.90
2017-10-19T01:40:14.320Z,99.90
2017-10-19T01:42:40.653Z,99.90
2017-10-19T01:45:06.965Z,99.90
2017-10-19T01:47:33.233Z,99.90
2017-10-19T01:50:00.252Z,99.90
2017-10-19T01:52:26.548Z,99.90
2017-10-19T01:54:52.829Z,99.90
2017-10-19T01:57:19.876Z,99.90
2017-10-19T01:59:46.904Z,99.90
2017-10-19T02:02:13.213Z,99.90
2017-10-19T02:04:39.485Z,99.90
2017-10-19T02:07:05.995Z,99.90
2017-10-19T02:09:32.297Z,99.90
2017-10-19T02:11:58.612Z,99.90
2017-10-19T02:14:24.929Z,99.90
2017-10-19T02:16:51.220Z,99.90
2017-10-19T02:19:17.573Z,99.90
2017-10-19T02:21:44.616Z,99.90
2017-10-19T02:24:11.668Z,99.90
2017-10-19T02:26:38.700Z,99.90
2017-10-19T02:29:05.017Z,99.90
2017-10-19T02:31:31.347Z,99.90
2017-10-19T02:33:57.736Z,99.90
2017-10-19T02:36:24.273Z,99.90
2017-10-19T02:38:50.622Z,99.90
2017-10-19T02:41:16.928Z,99.90
2017-10-19T02:43:43.196Z,99.90
2017-10-19T02:46:09.501Z,99.90
2017-10-19T02:48:36.768Z,99.90
2017-10-19T02:51:03.061Z,99.90
2017-10-19T02:53:29.337Z,99.90
2017-10-19T02:55:55.777Z,99.90
2017-10-19T02:58:22.068Z,99.90
2017-10-19T03:00:48.391Z,99.90
2017-10-19T03:03:14.685Z,99.90
2017-10-19T03:05:41.707Z,99.90
2017-10-19T03:08:08.064Z,99.90
2017-10-19T03:10:34.416Z,99.90
2017-10-19T03:13:01.445Z,99.90
2017-10-19T03:15:28.486Z,99.90
2017-10-19T03:17:54.785Z,99.90
2017-10-19T03:20:21.078Z,99.90
2017-10-19T03:22:47.404Z,99.90
2017-10-19T03:25:13.708Z,99.90
2017-10-19T03:27:40.749Z,99.90
2017-10-19T03:30:07.076Z,99.90
2017-10-19T03:32:33.368Z,99.90
2017-10-19T03:34:59.679Z,99.90
2017-10-19T03:37:26.121Z,99.90
2017-10-19T03:39:52.430Z,99.90
2017-10-19T03:42:19.474Z,99.90
2017-10-19T03:44:45.775Z,99.90
2017-10-19T03:47:12.052Z,99.90
2017-10-19T03:49:38.364Z,99.90
2017-10-19T03:52:04.654Z,99.90
2017-10-19T03:54:32.467Z,99.90
2017-10-19T03:56:58.780Z,99.90
2017-10-19T03:59:25.827Z,99.90
2017-10-19T04:01:52.867Z,99.90
2017-10-19T04:04:19.887Z,99.90
2017-10-19T04:06:46.192Z,99.90
2017-10-19T04:09:12.487Z,99.90
2017-10-19T04:11:39.548Z,99.90
2017-10-19T04:14:05.896Z,99.90
2017-10-19T04:16:32.251Z,99.90
2017-10-19T04:18:58.536Z,99.90
2017-10-19T04:21:24.799Z,99.90
2017-10-19T04:23:51.276Z,99.90
2017-10-19T04:26:18.483Z,99.90
2017-10-19T04:28:44.760Z,99.90
2017-10-19T04:31:11.832Z,99.90
2017-10-19T04:33:38.280Z,99.90
2017-10-19T04:36:04.593Z,99.90
2017-10-19T04:38:30.866Z,99.90
2017-10-19T04:40:57.180Z,99.90
2017-10-19T04:43:23.449Z,99.90
2017-10-19T04:45:50.559Z,99.90
2017-10-19T04:48:16.840Z,99.90
2017-10-19T04:50:43.927Z,99.90
2017-10-19T04:53:10.220Z,99.90
2017-10-19T04:55:37.288Z,99.90
2017-10-19T04:58:03.599Z,99.90
2017-10-19T05:00:30.624Z,99.90
2017-10-19T05:02:56.915Z,99.90
2017-10-19T05:05:23.216Z,99.90
2017-10-19T05:07:49.535Z,99.90
2017-10-19T05:10:16.586Z,99.90
2017-10-19T05:12:42.909Z,99.90
2017-10-19T05:15:09.225Z,99.90
2017-10-19T05:17:35.500Z,99.90
2017-10-19T05:20:01.798Z,99.90
2017-10-19T05:22:28.807Z,99.90
2017-10-19T05:24:55.300Z,99.90
2017-10-19T05:27:21.643Z,99.90
2017-10-19T05:29:47.976Z,99.90
2017-10-19T05:32:14.261Z,99.90
2017-10-19T05:34:41.280Z,99.90
2017-10-19T05:37:07.578Z,99.90
2017-10-19T05:39:33.879Z,99.90
2017-10-19T05:42:00.438Z,99.90
2017-10-19T05:44:26.765Z,99.90
2017-10-19T05:46:53.052Z,99.90
2017-10-19T05:49:21.088Z,99.90
2017-10-19T05:51:47.391Z,99.90
2017-10-19T05:54:13.699Z,99.90
2017-10-19T05:56:40.748Z,99.90
2017-10-19T05:59:07.796Z,99.90
2017-10-19T06:01:34.855Z,99.90
2017-10-19T06:04:01.199Z,99.90
2017-10-19T06:06:27.729Z,99.90
2017-10-19T06:08:54.037Z,99.90
2017-10-19T06:11:21.078Z,99.90
2017-10-19T06:13:48.144Z,99.90
2017-10-19T06:16:14.452Z,99.90
2017-10-19T06:18:41.505Z,99.90
2017-10-19T06:21:08.526Z,99.90
2017-10-19T06:23:34.804Z,99.90
2017-10-19T06:26:01.258Z,99.90
2017-10-19T06:28:27.547Z,99.90
2017-10-19T06:30:54.586Z,99.90
2017-10-19T06:33:21.628Z,99.90
2017-10-19T06:35:48.669Z,99.90
2017-10-19T06:38:15.008Z,99.90
2017-10-19T06:40:42.369Z,99.90
2017-10-19T06:43:09.399Z,99.90
2017-10-19T06:45:35.707Z,99.90
2017-10-19T06:48:01.994Z,99.90
2017-10-19T06:50:28.315Z,99.90
2017-10-19T06:52:55.342Z,99.90
2017-10-19T06:55:21.656Z,99.90
2017-10-19T06:57:48.017Z,99.90
2017-10-19T07:00:15.049Z,99.90
2017-10-19T07:02:42.245Z,99.90
2017-10-19T07:05:08.544Z,99.90
2017-10-19T07:07:35.628Z,99.90
2017-10-19T07:10:01.929Z,99.90
2017-10-19T07:12:28.964Z,99.90
2017-10-19T07:14:55.980Z,99.90
2017-10-19T07:17:22.311Z,99.90
2017-10-19T07:19:48.680Z,99.90
2017-10-19T07:22:15.800Z,99.90
2017-10-19T07:24:42.134Z,99.90
2017-10-19T07:27:09.959Z,99.90
2017-10-19T07:29:36.326Z,99.90
2017-10-19T07:32:02.612Z,99.90
2017-10-19T07:34:28.936Z,99.90
2017-10-19T07:36:55.227Z,99.90
2017-10-19T07:39:21.588Z,99.90
2017-10-19T07:41:47.902Z,99.90
2017-10-19T07:44:14.940Z,80.40
2017-10-19T07:46:41.997Z,67.70
2017-10-19T07:49:09.092Z,59.50
2017-10-19T07:51:38.092Z,59.20
2017-10-19T07:54:04.415Z,56.80
2017-10-19T07:56:30.719Z,54.20
2017-10-19T07:58:57.014Z,51.70
2017-10-19T08:01:23.329Z,50.30
2017-10-19T08:03:49.631Z,48.80
2017-10-19T08:06:15.976Z,46.30
2017-10-19T08:08:42.296Z,45.50
2017-10-19T08:11:08.641Z,42.70
2017-10-19T08:13:34.940Z,42.90
2017-10-19T08:16:01.270Z,43.00
2017-10-19T08:18:27.628Z,43.60
2017-10-19T08:20:53.932Z,42.00
2017-10-19T08:23:20.208Z,40.90
2017-10-19T08:25:47.276Z,38.40
2017-10-19T08:28:14.288Z,38.10
2017-10-19T08:30:40.604Z,38.00
2017-10-19T08:33:06.901Z,35.40
2017-10-19T08:35:33.367Z,35.70
2017-10-19T08:37:59.728Z,35.70
2017-10-19T08:40:26.239Z,35.40
2017-10-19T08:42:52.560Z,36.80
2017-10-19T08:45:18.854Z,36.00
2017-10-19T08:47:45.153Z,36.00
2017-10-19T08:50:12.957Z,36.20
2017-10-19T08:52:39.243Z,36.20
2017-10-19T08:55:07.596Z,36.00
2017-10-19T08:57:34.005Z,36.80
2017-10-19T09:00:00.317Z,37.50
2017-10-19T09:02:26.604Z,38.90
2017-10-19T09:04:53.672Z,41.50
2017-10-19T09:07:20.712Z,43.90
2017-10-19T09:09:47.019Z,43.80
2017-10-19T09:12:13.360Z,45.90
2017-10-19T09:14:39.681Z,47.80
2017-10-19T09:17:06.013Z,51.60
2017-10-19T09:19:32.335Z,55.40
2017-10-19T09:21:58.667Z,58.30
2017-10-19T09:24:24.967Z,62.70
2017-10-19T09:26:51.281Z,62.20
2017-10-19T09:29:17.636Z,63.90
2017-10-19T09:31:43.931Z,66.90
2017-10-19T09:34:11.208Z,73.00
2017-10-19T09:36:37.577Z,73.00
2017-10-19T09:39:03.912Z,74.90
2017-10-19T09:41:30.212Z,77.30
2017-10-19T09:43:56.503Z,78.40
2017-10-19T09:46:23.564Z,81.40
2017-10-19T09:48:49.901Z,81.40
2017-10-19T09:51:16.220Z,83.30
2017-10-19T09:53:43.303Z,85.30
2017-10-19T09:56:09.641Z,85.30
2017-10-19T09:58:36.006Z,86.30
2017-10-19T10:01:02.351Z,86.30
2017-10-19T10:03:29.409Z,85.50
2017-10-19T10:05:55.713Z,85.50
2017-10-19T10:08:22.101Z,84.90
2017-10-19T10:10:48.376Z,85.60
2017-10-19T10:13:15.872Z,88.10
2017-10-19T10:15:42.208Z,88.10
2017-10-19T10:18:08.577Z,87.40
2017-10-19T10:20:34.913Z,90.00
2017-10-19T10:23:01.260Z,90.30
2017-10-19T10:25:28.465Z,90.10
2017-10-19T10:27:57.753Z,90.30
2017-10-19T10:30:24.099Z,89.80
2017-10-19T10:32:50.384Z,90.40
2017-10-19T10:35:17.418Z,88.40
2017-10-19T10:37:43.828Z,88.40
2017-10-19T10:40:10.155Z,89.00
2017-10-19T10:42:36.667Z,90.20
2017-10-19T10:45:02.957Z,89.70
2017-10-19T10:47:30.092Z,90.20
2017-10-19T10:49:56.480Z,90.20
2017-10-19T10:52:22.754Z,90.00
2017-10-19T10:54:49.049Z,88.60
2017-10-19T10:57:15.381Z,87.40
2017-10-19T10:59:41.661Z,86.30
2017-10-19T11:02:08.737Z,87.40
2017-10-19T11:04:35.229Z,87.40
2017-10-19T11:07:02.248Z,86.90
2017-10-19T11:09:28.575Z,86.90
2017-10-19T11:11:55.600Z,89.00
2017-10-19T11:14:21.943Z,89.00
2017-10-19T11:16:48.259Z,86.40
2017-10-19T11:19:14.604Z,85.90
2017-10-19T11:21:40.930Z,84.00
2017-10-19T11:24:07.353Z,84.80
2017-10-19T11:26:33.692Z,82.20
2017-10-19T11:29:00.090Z,82.00
2017-10-19T11:31:26.383Z,81.80
2017-10-19T11:33:52.701Z,81.80
2017-10-19T11:36:19.008Z,80.90
2017-10-19T11:38:45.320Z,80.90
2017-10-19T11:41:11.727Z,80.40
2017-10-19T11:43:38.784Z,79.30
2017-10-19T11:46:06.012Z,79.00
2017-10-19T11:48:33.091Z,78.90
2017-10-19T11:50:59.408Z,78.80
2017-10-19T11:53:26.431Z,77.70
2017-10-19T11:55:53.488Z,77.00
2017-10-19T11:58:19.924Z,77.10
2017-10-19T12:00:46.955Z,75.70
2017-10-19T12:03:13.224Z,75.70
2017-10-19T12:05:39.550Z,76.50
2017-10-19T12:08:05.853Z,78.00
2017-10-19T12:10:32.153Z,76.80
2017-10-19T12:12:58.445Z,74.80
2017-10-19T12:15:24.737Z,73.00
2017-10-19T12:17:51.031Z,72.50
2017-10-19T12:20:17.310Z,73.40
2017-10-19T12:22:44.454Z,74.40
2017-10-19T12:25:11.473Z,75.60
2017-10-19T12:27:37.840Z,74.80
2017-10-19T12:30:04.864Z,73.70
2017-10-19T12:32:31.192Z,73.80
2017-10-19T12:34:57.488Z,75.40
2017-10-19T12:37:24.009Z,75.20
2017-10-19T12:39:57.295Z,76.30
2017-10-19T12:42:23.665Z,77.90
2017-10-19T12:44:49.997Z,77.70
2017-10-19T12:47:16.321Z,77.20
2017-10-19T12:49:42.624Z,76.50
2017-10-19T12:52:08.934Z,76.70
2017-10-19T12:54:36.017Z,75.00
2017-10-19T12:57:02.312Z,74.90
2017-10-19T12:59:29.346Z,73.80
2017-10-19T13:01:56.413Z,75.10
2017-10-19T13:04:22.707Z,74.30
2017-10-19T13:06:49.043Z,74.30
2017-10-19T13:09:15.340Z,74.40
2017-10-19T13:11:41.848Z,74.80
2017-10-19T13:14:08.170Z,75.00
2017-10-19T13:16:34.492Z,75.00
2017-10-19T13:19:01.530Z,75.00
2017-10-19T13:21:28.548Z,74.80
2017-10-19T13:23:55.584Z,72.60
2017-10-19T13:26:21.952Z,72.60
2017-10-19T13:28:49.016Z,71.50
2017-10-19T13:31:15.303Z,71.50
2017-10-19T13:33:41.606Z,71.10
2017-10-19T13:36:07.899Z,71.70
2017-10-19T13:38:34.953Z,72.40
2017-10-19T13:41:01.296Z,72.40
2017-10-19T13:43:27.634Z,72.60
2017-10-19T13:45:54.063Z,73.70
2017-10-19T13:48:20.380Z,73.50
2017-10-19T13:50:46.659Z,73.80
2017-10-19T13:53:12.936Z,73.90
2017-10-19T13:55:39.297Z,75.00
2017-10-19T13:58:05.600Z,75.70
2017-10-19T14:00:32.228Z,75.90
2017-10-19T14:02:59.265Z,75.80
2017-10-19T14:05:26.365Z,75.80
2017-10-19T14:07:52.681Z,75.80
2017-10-19T14:10:18.973Z,75.80
2017-10-19T14:12:46.049Z,76.70
2017-10-19T14:15:12.372Z,76.70
2017-10-19T14:17:38.668Z,76.40
2017-10-19T14:20:04.961Z,77.10
2017-10-19T14:22:31.283Z,77.40
2017-10-19T14:24:57.635Z,78.30
2017-10-19T14:27:24.003Z,78.10
2017-10-19T14:29:51.057Z,78.20
2017-10-19T14:32:18.107Z,78.30
2017-10-19T14:34:45.397Z,79.20
2017-10-19T14:37:11.696Z,79.10
2017-10-19T14:39:38.073Z,79.10
2017-10-19T14:42:04.407Z,79.00
2017-10-19T14:44:30.764Z,79.60
2017-10-19T14:46:57.030Z,80.20
2017-10-19T14:49:24.632Z,79.50
2017-10-19T14:51:51.201Z,78.90
2017-10-19T14:54:17.548Z,79.80
2017-10-19T14:56:43.996Z,78.00
2017-10-19T14:59:10.548Z,78.70
2017-10-19T15:01:36.903Z,79.30
2017-10-19T15:04:04.665Z,80.00
2017-10-19T15:06:31.701Z,80.40
2017-10-19T15:08:58.036Z,80.40
2017-10-19T15:11:24.348Z,80.60
2017-10-19T15:13:50.632Z,81.10
2017-10-19T15:16:17.632Z,81.50
2017-10-19T15:18:43.916Z,81.30
2017-10-19T15:21:10.239Z,81.10
2017-10-19T15:23:37.276Z,81.10
2017-10-19T15:26:04.321Z,80.50
2017-10-19T15:28:31.378Z,79.90
2017-10-19T15:30:58.509Z,79.30
2017-10-19T15:33:24.809Z,79.10
2017-10-19T15:35:51.139Z,79.60
2017-10-19T15:38:17.471Z,80.20
2017-10-19T15:40:43.778Z,80.20
2017-10-19T15:43:10.089Z,80.60
2017-10-19T15:45:37.141Z,83.20
2017-10-19T15:48:03.417Z,83.30
2017-10-19T15:50:29.725Z,84.60
2017-10-19T15:52:56.070Z,85.70
2017-10-19T15:55:22.357Z,86.20
2017-10-19T15:57:48.684Z,87.40
2017-10-19T16:00:15.006Z,87.90
2017-10-19T16:02:42.104Z,89.30
2017-10-19T16:05:08.450Z,89.30
2017-10-19T16:07:34.808Z,89.90
2017-10-19T16:10:01.891Z,91.10
2017-10-19T16:12:28.448Z,91.10
2017-10-19T16:14:54.776Z,91.30
2017-10-19T16:17:22.007Z,92.00
2017-10-19T16:19:48.440Z,92.80
2017-10-19T16:22:14.846Z,93.60
2017-10-19T16:24:41.934Z,94.80
2017-10-19T16:27:08.348Z,94.80
2017-10-19T16:29:34.743Z,95.30
2017-10-19T16:32:01.157Z,95.90
2017-10-19T16:34:27.681Z,96.80
2017-10-19T16:36:54.055Z,97.60
2017-10-19T16:39:21.237Z,99.00
2017-10-19T16:41:47.659Z,99.00
2017-10-19T16:44:14.158Z,99.60
2017-10-19T16:46:41.236Z,99.90
2017-10-19T16:49:07.566Z,99.90
2017-10-19T16:51:33.931Z,99.90
2017-10-19T16:54:00.241Z,99.90
2017-10-19T16:56:26.575Z,99.90
2017-10-19T16:58:52.909Z,99.90
2017-10-19T17:01:19.223Z,99.90
2017-10-19T17:03:45.553Z,99.90
2017-10-19T17:06:11.865Z,99.90
2017-10-19T17:08:38.972Z,99.90
2017-10-19T17:11:05.307Z,99.90
2017-10-19T17:13:31.649Z,99.90
2017-10-19T17:15:57.947Z,99.90
2017-10-19T17:18:24.308Z,99.90
2017-10-19T17:20:50.619Z,99.90
2017-10-19T17:23:17.001Z,99.90
2017-10-19T17:25:44.050Z,99.90
2017-10-19T17:28:10.428Z,99.90
2017-10-19T17:30:36.755Z,99.90
2017-10-19T17:33:03.052Z,99.90
2017-10-19T17:35:29.370Z,99.90
2017-10-19T17:37:56.395Z,99.90
2017-10-19T17:40:22.744Z,99.90
2017-10-19T17:42:49.783Z,99.90
2017-10-19T17:45:16.886Z,99.90
2017-10-19T17:47:43.222Z,99.90
2017-10-19T17:50:09.521Z,99.90
2017-10-19T17:52:35.981Z,99.90
2017-10-19T17:55:02.549Z,99.90
2017-10-19T17:57:28.849Z,99.90
2017-10-19T17:59:55.188Z,99.90
2017-10-19T18:02:21.573Z,99.90
2017-10-19T18:04:47.867Z,99.90
2017-10-19T18:07:14.230Z,99.90
2017-10-19T18:09:40.603Z,99.90
2017-10-19T18:12:06.922Z,99.90
2017-10-19T18:14:33.226Z,99.90
2017-10-19T18:16:59.610Z,99.90
2017-10-19T18:19:25.951Z,99.90
2017-10-19T18:21:53.022Z,99.90
2017-10-19T18:24:20.092Z,99.90
2017-10-19T18:26:46.414Z,99.90
2017-10-19T18:29:12.763Z,99.90
2017-10-19T18:31:39.104Z,99.90
2017-10-19T18:34:05.439Z,99.90
2017-10-19T18:36:31.873Z,99.90
2017-10-19T18:38:58.179Z,99.90
2017-10-19T18:41:24.581Z,99.90
2017-10-19T18:43:51.644Z,99.90
2017-10-19T18:46:18.001Z,99.90
2017-10-19T18:48:44.330Z,99.90
2017-10-19T18:51:10.689Z,99.90
2017-10-19T18:53:37.002Z,99.90
2017-10-19T18:56:03.334Z,99.90
2017-10-19T18:58:29.792Z,99.90
2017-10-19T19:00:56.105Z,99.90
2017-10-19T19:03:22.473Z,99.90
2017-10-19T19:05:49.587Z,99.90
2017-10-19T19:08:15.929Z,99.90
2017-10-19T19:10:42.307Z,99.90
2017-10-19T19:13:08.657Z,99.90
2017-10-19T19:15:35.025Z,99.90
2017-10-19T19:18:02.102Z,99.90
2017-10-19T19:20:29.234Z,99.90
2017-10-19T19:22:55.757Z,99.90
2017-10-19T19:25:23.662Z,99.90
2017-10-19T19:27:50.749Z,99.90
2017-10-19T19:30:17.131Z,99.90
2017-10-19T19:32:44.198Z,99.90
2017-10-19T19:35:10.511Z,99.90
2017-10-19T19:37:37.564Z,99.90
2017-10-19T19:40:04.621Z,99.90
2017-10-19T19:42:30.957Z,99.90
2017-10-19T19:44:57.345Z,99.90
2017-10-19T19:47:24.529Z,99.90
2017-10-19T19:49:51.184Z,99.90
2017-10-19T19:52:17.545Z,99.90
2017-10-19T19:54:43.888Z,99.90
2017-10-19T19:57:17.186Z,99.90
2017-10-19T19:59:43.518Z,99.90
2017-10-19T20:02:10.593Z,99.90
2017-10-19T20:04:37.692Z,99.90
2017-10-19T20:07:04.021Z,99.90
2017-10-19T20:09:30.361Z,99.90
2017-10-19T20:11:56.684Z,99.90
2017-10-19T20:14:23.044Z,99.90
2017-10-19T20:16:50.815Z,99.90
2017-10-19T20:19:17.889Z,99.90
2017-10-19T20:21:44.249Z,99.90
2017-10-19T20:24:10.673Z,99.90
2017-10-19T20:26:37.017Z,99.90
2017-10-19T20:29:03.380Z,99.90
2017-10-19T20:31:30.455Z,99.90
2017-10-19T20:33:57.736Z,99.90
2017-10-19T20:36:24.272Z,99.90
2017-10-19T20:38:50.771Z,99.90
2017-10-19T20:41:17.810Z,99.90
2017-10-19T20:43:44.841Z,99.90
2017-10-19T20:46:12.176Z,99.90
2017-10-19T20:48:38.608Z,99.90
2017-10-19T20:51:04.943Z,99.90
2017-10-19T20:53:31.273Z,99.90
2017-10-19T20:55:57.766Z,99.90
2017-10-19T20:58:24.088Z,99.90
2017-10-19T21:00:50.373Z,99.90
2017-10-19T21:03:16.700Z,99.90
2017-10-19T21:05:43.009Z,99.90
2017-10-19T21:08:09.385Z,99.90
2017-10-19T21:10:36.432Z,99.90
2017-10-19T21:13:03.464Z,99.90
2017-10-19T21:15:29.772Z,99.90
2017-10-19T21:17:56.063Z,99.90
2017-10-19T21:20:22.421Z,99.90
2017-10-19T21:22:48.762Z,99.90
2017-10-19T21:25:15.065Z,99.90
2017-10-19T21:27:41.390Z,99.90
2017-10-19T21:30:07.736Z,99.90
2017-10-19T21:32:34.052Z,99.90
2017-10-19T21:35:00.340Z,99.90
2017-10-19T21:37:28.158Z,99.90
2017-10-19T21:39:54.572Z,99.90
2017-10-19T21:42:20.901Z,99.90
2017-10-19T21:44:47.215Z,99.90
2017-10-19T21:47:14.387Z,99.90
2017-10-19T21:49:40.700Z,99.90
2017-10-19T21:52:07.842Z,99.90
2017-10-19T21:54:34.894Z,99.90
2017-10-19T21:57:01.924Z,99.90
2017-10-19T21:59:28.226Z,99.90
2017-10-19T22:01:54.526Z,99.90
2017-10-19T22:04:20.833Z,99.90
2017-10-19T22:06:47.901Z,99.90
2017-10-19T22:09:14.221Z,99.90
2017-10-19T22:11:41.362Z,99.90
2017-10-19T22:14:08.420Z,99.90
2017-10-19T22:16:34.749Z,99.90
2017-10-19T22:19:01.072Z,99.90
2017-10-19T22:21:28.164Z,99.90
2017-10-19T22:23:54.431Z,99.90
2017-10-19T22:26:20.721Z,99.90
2017-10-19T22:28:47.040Z,99.90
2017-10-19T22:31:13.331Z,99.90
2017-10-19T22:33:40.377Z,99.90
2017-10-19T22:36:07.526Z,99.90
2017-10-19T22:38:34.627Z,99.90
2017-10-19T22:41:00.920Z,99.90
2017-10-19T22:43:27.208Z,99.90
2017-10-19T22:45:53.674Z,99.90
2017-10-19T22:48:20.689Z,99.90
2017-10-19T22:50:46.998Z,99.90
2017-10-19T22:53:13.295Z,99.90
2017-10-19T22:55:39.632Z,99.90
2017-10-19T22:58:05.940Z,99.90
2017-10-19T23:00:32.993Z,99.90
2017-10-19T23:02:59.287Z,99.90
2017-10-19T23:05:25.580Z,99.90
2017-10-19T23:07:51.907Z,99.90
2017-10-19T23:10:18.242Z,99.90
2017-10-19T23:12:44.568Z,99.90
2017-10-19T23:15:10.859Z,99.90
2017-10-19T23:17:37.912Z,99.90
2017-10-19T23:20:05.061Z,99.90
2017-10-19T23:22:32.093Z,99.90
2017-10-19T23:24:58.404Z,99.90
2017-10-19T23:27:24.693Z,99.90
2017-10-19T23:29:51.016Z,99.90
2017-10-19T23:32:17.348Z,99.90
2017-10-19T23:34:43.749Z,99.90
2017-10-19T23:37:10.819Z,99.90
2017-10-19T23:39:37.101Z,99.90
2017-10-19T23:42:03.364Z,99.90
2017-10-19T23:44:30.418Z,99.90
2017-10-19T23:46:57.451Z,99.90
2017-10-19T23:49:24.467Z,99.90
2017-10-19T23:51:50.756Z,99.90
2017-10-19T23:54:17.076Z,99.90
2017-10-19T23:56:43.360Z,99.90
2017-10-19T23:59:09.754Z,99.90
